createdAt,value
2022-11-24T00:01:11.335Z,17.40
2022-11-24T00:03:38.494Z,17.20
2022-11-24T00:06:07.755Z,17.00
2022-11-24T00:08:39.116Z,17.10
2022-11-24T00:11:11.487Z,17.10
2022-11-24T00:13:41.541Z,17.10
2022-11-24T00:16:16.926Z,17.10
2022-11-24T00:18:45.960Z,17.00
2022-11-24T00:21:13.755Z,17.10
2022-11-24T00:23:40.842Z,17.30
2022-11-24T00:26:10.400Z,17.30
2022-11-24T00:28:38.276Z,17.30
2022-11-24T00:31:17.186Z,17.20
2022-11-24T00:33:45.117Z,17.20
2022-11-24T00:36:12.032Z,17.20
2022-11-24T00:38:39.001Z,17.10
2022-11-24T00:41:06.753Z,17.30
2022-11-24T00:43:34.019Z,17.20
2022-11-24T00:46:01.262Z,17.20
2022-11-24T00:48:28.436Z,17.20
2022-11-24T00:51:00.554Z,17.20
2022-11-24T00:53:28.602Z,17.20
2022-11-24T00:55:56.326Z,17.20
2022-11-24T00:58:24.147Z,17.20
2022-11-24T01:00:51.459Z,17.30
2022-11-24T01:03:19.533Z,17.30
2022-11-24T01:05:46.517Z,17.30
2022-11-24T01:08:13.386Z,17.20
2022-11-24T01:10:40.462Z,17.20
2022-11-24T01:13:07.377Z,17.30
2022-11-24T01:15:36.662Z,17.30
2022-11-24T01:18:04.246Z,17.30
2022-11-24T01:20:31.846Z,17.30
2022-11-24T01:22:58.727Z,17.30
2022-11-24T01:25:25.677Z,17.30
2022-11-24T01:27:52.791Z,17.30
2022-11-24T01:30:19.988Z,17.20
2022-11-24T01:32:46.884Z,17.00
2022-11-24T01:35:13.775Z,17.10
2022-11-24T01:37:40.849Z,17.20
2022-11-24T01:40:08.583Z,17.30
2022-11-24T01:42:50.920Z,17.30
2022-11-24T01:45:41.066Z,17.30
2022-11-24T01:48:24.460Z,17.30
2022-11-24T01:51:06.687Z,17.20
2022-11-24T01:53:34.131Z,17.20
2022-11-24T01:56:01.157Z,17.20
2022-11-24T01:58:30.762Z,17.20
2022-11-24T02:00:57.676Z,17.00
2022-11-24T02:03:30.252Z,17.00
2022-11-24T02:06:11.652Z,17.10
2022-11-24T02:08:50.199Z,17.20
2022-11-24T02:11:17.803Z,17.20
2022-11-24T02:13:46.365Z,17.30
2022-11-24T02:16:13.388Z,17.30
2022-11-24T02:18:41.994Z,17.40
2022-11-24T02:21:11.435Z,17.40
2022-11-24T02:24:03.892Z,17.40
2022-11-24T02:26:48.157Z,17.40
2022-11-24T02:29:15.536Z,17.30
2022-11-24T02:31:47.655Z,17.30
2022-11-24T02:34:14.602Z,17.50
2022-11-24T02:36:41.503Z,17.50
2022-11-24T02:39:13.062Z,17.50
2022-11-24T02:41:47.123Z,17.40
2022-11-24T02:44:16.107Z,17.60
2022-11-24T02:46:43.029Z,17.60
2022-11-24T02:49:10.008Z,17.60
2022-11-24T02:51:36.886Z,17.60
2022-11-24T02:54:03.851Z,17.60
2022-11-24T02:56:31.906Z,17.60
2022-11-24T02:58:58.783Z,17.60
2022-11-24T03:01:25.802Z,17.40
2022-11-24T03:03:53.562Z,17.40
2022-11-24T03:06:20.774Z,17.30
2022-11-24T03:08:47.641Z,17.40
2022-11-24T03:11:14.757Z,17.40
2022-11-24T03:13:41.688Z,17.50
2022-11-24T03:16:10.438Z,17.50
2022-11-24T03:18:37.420Z,17.40
2022-11-24T03:21:04.624Z,17.40
2022-11-24T03:23:31.566Z,17.50
2022-11-24T03:26:13.658Z,17.40
2022-11-24T03:28:40.686Z,17.40
2022-11-24T03:31:08.655Z,17.40
2022-11-24T03:33:36.425Z,17.50
2022-11-24T03:36:04.523Z,17.50
2022-11-24T03:38:31.470Z,17.50
2022-11-24T03:40:58.369Z,17.40
2022-11-24T03:43:25.559Z,17.30
2022-11-24T03:45:52.410Z,17.40
2022-11-24T03:48:21.479Z,17.30
2022-11-24T03:51:03.160Z,17.20
2022-11-24T03:53:31.726Z,17.30
2022-11-24T03:55:58.671Z,17.30
2022-11-24T03:58:25.863Z,17.30
2022-11-24T04:00:53.968Z,17.20
2022-11-24T04:03:20.987Z,17.30
2022-11-24T04:05:47.986Z,17.20
2022-11-24T04:08:15.442Z,17.30
2022-11-24T04:10:42.684Z,17.30
2022-11-24T04:13:15.778Z,17.30
2022-11-24T04:15:43.638Z,17.30
2022-11-24T04:18:12.544Z,17.30
2022-11-24T04:20:40.716Z,17.30
2022-11-24T04:23:08.927Z,17.30
2022-11-24T04:25:36.110Z,17.30
2022-11-24T04:28:03.373Z,17.30
2022-11-24T04:30:30.290Z,17.30
2022-11-24T04:32:57.431Z,17.20
2022-11-24T04:35:24.687Z,17.20
2022-11-24T04:37:51.680Z,17.30
2022-11-24T04:40:19.514Z,17.20
2022-11-24T04:42:54.391Z,17.30
2022-11-24T04:45:21.948Z,17.10
2022-11-24T04:47:48.797Z,17.20
2022-11-24T04:50:16.299Z,17.20
2022-11-24T04:52:43.689Z,17.10
2022-11-24T04:55:10.840Z,17.10
2022-11-24T04:57:38.011Z,17.10
2022-11-24T05:00:05.724Z,17.10
2022-11-24T05:02:32.672Z,17.10
2022-11-24T05:04:59.566Z,17.10
2022-11-24T05:07:26.537Z,17.10
2022-11-24T05:10:11.854Z,17.10
2022-11-24T05:12:39.556Z,17.10
2022-11-24T05:15:07.594Z,17.00
2022-11-24T05:17:37.994Z,17.10
2022-11-24T05:20:07.202Z,17.10
2022-11-24T05:22:34.186Z,17.10
2022-11-24T05:25:01.766Z,17.10
2022-11-24T05:27:28.992Z,17.20
2022-11-24T05:29:56.291Z,17.10
2022-11-24T05:32:23.678Z,17.10
2022-11-24T05:34:50.647Z,17.10
2022-11-24T05:37:17.823Z,17.10
2022-11-24T05:39:44.697Z,17.20
2022-11-24T05:42:30.273Z,17.10
2022-11-24T05:44:57.678Z,16.90
2022-11-24T05:47:24.691Z,16.80
2022-11-24T05:49:52.001Z,16.80
2022-11-24T05:52:18.874Z,16.80
2022-11-24T05:54:45.693Z,16.80
2022-11-24T05:57:13.231Z,16.70
2022-11-24T05:59:40.226Z,16.70
2022-11-24T06:02:07.186Z,16.80
2022-11-24T06:04:34.297Z,17.00
2022-11-24T06:07:01.534Z,16.90
2022-11-24T06:09:28.648Z,16.80
2022-11-24T06:11:56.081Z,16.50
2022-11-24T06:14:23.041Z,16.30
2022-11-24T06:16:49.939Z,16.10
2022-11-24T06:19:16.948Z,15.90
2022-11-24T06:21:43.821Z,15.80
2022-11-24T06:24:10.837Z,15.70
2022-11-24T06:26:37.655Z,15.60
2022-11-24T06:29:04.528Z,15.60
2022-11-24T06:31:31.358Z,15.60
2022-11-24T06:33:58.859Z,15.50
2022-11-24T06:36:25.788Z,15.50
2022-11-24T06:38:52.682Z,15.50
2022-11-24T06:41:20.026Z,15.40
2022-11-24T06:43:47.618Z,15.50
2022-11-24T06:46:14.519Z,15.50
2022-11-24T06:48:41.597Z,15.50
2022-11-24T06:51:12.808Z,15.50
2022-11-24T06:53:40.877Z,15.30
2022-11-24T06:56:16.348Z,15.30
2022-11-24T06:58:46.666Z,15.60
2022-11-24T07:01:18.755Z,15.80
2022-11-24T07:03:48.096Z,16.00
2022-11-24T07:06:15.857Z,16.00
2022-11-24T07:08:42.949Z,16.00
2022-11-24T07:11:15.460Z,16.10
2022-11-24T07:13:46.045Z,16.10
2022-11-24T07:16:21.543Z,16.20
2022-11-24T07:18:51.254Z,16.30
2022-11-24T07:21:19.758Z,16.30
2022-11-24T07:23:54.102Z,16.20
2022-11-24T07:26:21.879Z,16.30
2022-11-24T07:28:49.077Z,16.50
2022-11-24T07:31:21.752Z,16.60
2022-11-24T07:33:53.292Z,16.70
2022-11-24T07:36:20.858Z,16.70
2022-11-24T07:38:48.738Z,16.70
2022-11-24T07:41:17.991Z,16.70
2022-11-24T07:43:45.213Z,16.80
2022-11-24T07:46:14.647Z,16.80
2022-11-24T07:48:41.615Z,16.90
2022-11-24T07:51:09.242Z,16.90
2022-11-24T07:53:37.541Z,16.90
2022-11-24T07:56:06.393Z,16.90
2022-11-24T07:58:35.245Z,16.90
2022-11-24T08:01:16.327Z,17.10
2022-11-24T08:03:43.753Z,17.00
2022-11-24T08:06:31.811Z,17.00
2022-11-24T08:08:59.102Z,17.00
2022-11-24T08:11:26.799Z,17.10
2022-11-24T08:13:53.693Z,17.00
2022-11-24T08:16:21.044Z,16.90
2022-11-24T08:18:52.557Z,16.90
2022-11-24T08:21:19.882Z,17.00
2022-11-24T08:23:47.060Z,17.00
2022-11-24T08:26:17.852Z,17.00
2022-11-24T08:28:46.399Z,17.00
2022-11-24T08:31:18.894Z,17.10
2022-11-24T08:33:46.586Z,17.10
2022-11-24T08:36:15.953Z,17.00
2022-11-24T08:38:43.051Z,17.10
2022-11-24T08:41:12.812Z,17.20
2022-11-24T08:43:39.908Z,17.10
2022-11-24T08:46:13.189Z,17.10
2022-11-24T08:48:41.608Z,17.00
2022-11-24T08:51:13.688Z,17.00
2022-11-24T08:53:41.527Z,17.10
2022-11-24T08:56:10.820Z,17.30
2022-11-24T08:58:38.472Z,17.20
2022-11-24T09:01:06.552Z,17.30
2022-11-24T09:03:34.650Z,17.30
2022-11-24T09:06:02.445Z,17.30
2022-11-24T09:08:30.782Z,17.30
2022-11-24T09:11:08.682Z,17.30
2022-11-24T09:13:36.322Z,17.20
2022-11-24T09:16:08.860Z,17.30
2022-11-24T09:18:36.247Z,17.30
2022-11-24T09:21:07.489Z,17.30
2022-11-24T09:23:34.691Z,17.20
2022-11-24T09:26:26.038Z,17.20
2022-11-24T09:28:54.729Z,17.30
2022-11-24T09:31:24.390Z,17.20
2022-11-24T09:33:52.439Z,17.20
2022-11-24T09:36:20.368Z,17.20
2022-11-24T09:38:47.853Z,17.30
2022-11-24T09:41:44.322Z,17.20
2022-11-24T09:44:35.795Z,17.30
2022-11-24T09:47:33.312Z,17.40
2022-11-24T09:50:19.699Z,17.30
2022-11-24T09:53:03.859Z,17.30
2022-11-24T09:55:56.179Z,17.20
2022-11-24T09:58:41.879Z,17.30
2022-11-24T10:01:17.389Z,17.40
2022-11-24T10:03:52.554Z,17.30
2022-11-24T10:06:27.233Z,17.20
2022-11-24T10:09:02.342Z,17.30
2022-11-24T10:11:50.733Z,17.30
2022-11-24T10:14:23.608Z,17.30
2022-11-24T10:17:05.283Z,17.40
2022-11-24T10:19:46.037Z,17.40
2022-11-24T10:22:37.827Z,17.40
2022-11-24T10:25:12.428Z,17.30
2022-11-24T10:27:49.255Z,17.40
2022-11-24T10:30:21.693Z,17.30
2022-11-24T10:32:55.668Z,17.40
2022-11-24T10:35:35.189Z,17.40
2022-11-24T10:38:16.169Z,17.50
2022-11-24T10:40:58.796Z,17.40
2022-11-24T10:43:29.359Z,17.40
2022-11-24T10:46:08.709Z,17.30
2022-11-24T10:48:43.114Z,17.30
2022-11-24T10:51:38.735Z,17.40
2022-11-24T10:54:12.513Z,17.50
2022-11-24T10:56:44.303Z,17.40
2022-11-24T10:59:40.596Z,17.40
2022-11-24T11:02:31.061Z,17.50
2022-11-24T11:04:58.618Z,17.50
2022-11-24T11:07:27.170Z,17.60
2022-11-24T11:10:20.925Z,17.70
2022-11-24T11:12:49.950Z,17.70
2022-11-24T11:15:31.903Z,17.70
2022-11-24T11:18:02.207Z,17.80
2022-11-24T11:20:33.729Z,17.60
2022-11-24T11:23:13.142Z,17.60
2022-11-24T11:25:41.166Z,17.60
2022-11-24T11:28:29.250Z,17.60
2022-11-24T11:31:22.123Z,17.40
2022-11-24T11:34:21.814Z,17.50
2022-11-24T11:36:54.882Z,17.50
2022-11-24T11:39:31.543Z,17.60
2022-11-24T11:42:37.839Z,17.60
2022-11-24T11:45:17.427Z,17.70
2022-11-24T11:48:01.907Z,17.70
2022-11-24T11:51:15.043Z,17.80
2022-11-24T11:53:49.604Z,17.60
2022-11-24T11:56:25.778Z,17.50
2022-11-24T11:59:01.626Z,17.50
2022-11-24T12:01:31.571Z,17.60
2022-11-24T12:04:21.603Z,17.60
2022-11-24T12:07:12.681Z,17.60
2022-11-24T12:10:09.711Z,17.70
2022-11-24T12:13:03.365Z,17.70
2022-11-24T12:15:41.629Z,17.60
2022-11-24T12:18:57.064Z,17.50
2022-11-24T12:21:52.897Z,17.60
2022-11-24T12:24:27.747Z,17.40
2022-11-24T12:27:23.215Z,17.40
2022-11-24T12:29:59.126Z,17.50
2022-11-24T12:32:41.317Z,17.50
2022-11-24T12:35:22.298Z,17.50
2022-11-24T12:38:16.732Z,17.50
2022-11-24T12:43:53.445Z,17.60
2022-11-24T12:46:46.093Z,17.50
2022-11-24T12:49:38.945Z,17.50
2022-11-24T12:52:13.671Z,17.50
2022-11-24T12:54:41.176Z,17.50
2022-11-24T12:57:42.650Z,17.60
2022-11-24T13:00:21.175Z,17.60
2022-11-24T13:03:14.110Z,17.50
2022-11-24T13:05:52.367Z,17.60
2022-11-24T13:08:19.756Z,17.50
2022-11-24T13:10:57.392Z,17.60
2022-11-24T13:13:30.217Z,17.70
2022-11-24T13:18:58.788Z,17.60
2022-11-24T13:21:32.841Z,17.50
2022-11-24T13:24:05.974Z,17.60
2022-11-24T13:26:41.508Z,17.60
2022-11-24T13:29:27.127Z,17.70
2022-11-24T13:32:19.566Z,17.60
2022-11-24T13:34:58.129Z,17.60
2022-11-24T13:37:34.831Z,17.60
2022-11-24T13:40:22.903Z,17.60
2022-11-24T13:42:57.197Z,17.70
2022-11-24T13:45:38.920Z,17.70
2022-11-24T13:48:21.394Z,17.70
2022-11-24T13:50:51.932Z,17.80
2022-11-24T13:53:46.035Z,17.70
2022-11-24T13:56:12.848Z,17.80
2022-11-24T13:58:42.346Z,17.60
2022-11-24T14:01:15.055Z,17.50
2022-11-24T14:04:07.177Z,17.50
2022-11-24T14:06:42.242Z,17.50
2022-11-24T14:09:24.005Z,17.50
2022-11-24T14:12:12.184Z,17.50
2022-11-24T14:14:39.891Z,17.50
2022-11-24T14:17:22.721Z,17.40
2022-11-24T14:19:54.945Z,17.40
2022-11-24T14:22:35.065Z,17.30
2022-11-24T14:25:03.536Z,17.40
2022-11-24T14:27:36.180Z,17.40
2022-11-24T14:30:20.540Z,17.40
2022-11-24T14:33:02.066Z,17.40
2022-11-24T14:35:44.021Z,17.40
2022-11-24T14:38:12.404Z,17.40
2022-11-24T14:41:13.614Z,17.40
2022-11-24T14:43:40.561Z,17.50
2022-11-24T14:46:17.972Z,17.40
2022-11-24T14:48:50.585Z,17.40
2022-11-24T14:51:24.009Z,17.40
2022-11-24T14:54:17.483Z,17.30
2022-11-24T14:57:04.263Z,17.40
2022-11-24T14:59:34.603Z,17.40
2022-11-24T15:02:02.269Z,17.40
2022-11-24T15:05:00.996Z,17.30
2022-11-24T15:07:24.726Z,17.40
2022-11-24T15:09:58.121Z,17.30
2022-11-24T15:12:29.379Z,17.30
2022-11-24T15:15:00.215Z,17.20
2022-11-24T15:17:29.161Z,17.20
2022-11-24T15:20:00.693Z,17.20
2022-11-24T15:22:35.980Z,17.30
2022-11-24T15:25:02.998Z,17.20
2022-11-24T15:27:29.868Z,17.20
2022-11-24T15:29:56.864Z,17.30
2022-11-24T15:32:23.792Z,17.30
2022-11-24T15:34:50.643Z,17.20
2022-11-24T15:37:17.498Z,17.30
2022-11-24T15:39:44.299Z,17.30
2022-11-24T15:42:12.295Z,17.30
2022-11-24T15:44:39.162Z,17.30
2022-11-24T15:47:06.074Z,17.30
2022-11-24T15:49:32.988Z,17.30
2022-11-24T15:51:59.991Z,17.20
2022-11-24T15:54:27.654Z,17.30
2022-11-24T15:56:54.474Z,17.20
2022-11-24T15:59:24.127Z,17.20
2022-11-24T16:01:51.236Z,17.30
2022-11-24T16:04:18.159Z,17.30
2022-11-24T16:06:44.952Z,17.20
2022-11-24T16:09:14.465Z,17.30
2022-11-24T16:11:41.632Z,17.30
2022-11-24T16:14:08.599Z,17.20
2022-11-24T16:16:35.714Z,17.20
2022-11-24T16:19:02.818Z,17.20
2022-11-24T16:21:29.698Z,17.30
2022-11-24T16:23:56.533Z,17.30
2022-11-24T16:26:23.372Z,17.30
2022-11-24T16:28:50.216Z,17.40
2022-11-24T16:31:18.406Z,17.40
2022-11-24T16:33:46.418Z,17.30
2022-11-24T16:36:14.010Z,17.30
2022-11-24T16:38:41.124Z,17.30
2022-11-24T16:41:16.148Z,17.30
2022-11-24T16:43:43.011Z,17.30
2022-11-24T16:46:21.032Z,17.30
2022-11-24T16:48:53.344Z,17.40
2022-11-24T16:51:22.736Z,17.30
2022-11-24T16:54:00.481Z,17.40
2022-11-24T16:56:28.628Z,17.40
2022-11-24T16:58:55.962Z,17.30
2022-11-24T17:01:23.375Z,17.40
2022-11-24T17:03:50.253Z,17.30
2022-11-24T17:06:17.687Z,17.30
2022-11-24T17:08:46.420Z,17.40
2022-11-24T17:11:19.049Z,17.40
2022-11-24T17:13:47.553Z,17.40
2022-11-24T17:16:16.468Z,17.20
2022-11-24T17:18:44.635Z,17.20
2022-11-24T17:21:20.181Z,17.20
2022-11-24T17:23:47.509Z,17.10
2022-11-24T17:26:18.386Z,17.10
2022-11-24T17:28:45.503Z,17.10
2022-11-24T17:31:16.990Z,17.20
2022-11-24T17:33:44.070Z,17.20
2022-11-24T17:36:10.930Z,17.20
2022-11-24T17:38:37.784Z,17.10
2022-11-24T17:41:05.170Z,17.10
2022-11-24T17:43:32.608Z,17.10
2022-11-24T17:46:02.067Z,17.10
2022-11-24T17:48:29.892Z,17.10
2022-11-24T17:51:10.418Z,17.20
2022-11-24T17:53:37.624Z,17.20
2022-11-24T17:56:06.072Z,17.30
2022-11-24T17:58:38.336Z,17.20
2022-11-24T18:01:08.585Z,17.10
2022-11-24T18:03:35.554Z,17.30
2022-11-24T18:06:14.150Z,17.30
2022-11-24T18:08:43.544Z,17.20
2022-11-24T18:11:25.933Z,17.40
2022-11-24T18:14:00.712Z,17.40
2022-11-24T18:16:30.519Z,17.40
2022-11-24T18:19:08.342Z,17.20
2022-11-24T18:21:37.730Z,17.20
2022-11-24T18:24:04.888Z,17.10
2022-11-24T18:26:31.760Z,17.10
2022-11-24T18:28:58.584Z,17.10
2022-11-24T18:31:26.321Z,17.20
2022-11-24T18:33:53.356Z,17.30
2022-11-24T18:36:28.380Z,17.30
2022-11-24T18:38:57.165Z,17.30
2022-11-24T18:41:23.976Z,17.40
2022-11-24T18:43:50.790Z,17.50
2022-11-24T18:46:18.287Z,17.40
2022-11-24T18:48:46.010Z,17.40
2022-11-24T18:51:15.962Z,17.40
2022-11-24T18:53:44.397Z,17.40
2022-11-24T18:56:16.311Z,17.10
2022-11-24T18:58:44.020Z,17.20
2022-11-24T19:01:16.632Z,17.30
2022-11-24T19:03:49.527Z,17.30
2022-11-24T19:06:28.977Z,17.20
2022-11-24T19:08:56.221Z,17.10
2022-11-24T19:11:25.815Z,16.70
2022-11-24T19:13:52.841Z,16.60
2022-11-24T19:16:21.219Z,16.50
2022-11-24T19:18:54.150Z,16.80
2022-11-24T19:21:22.090Z,16.90
2022-11-24T19:23:49.523Z,17.00
2022-11-24T19:26:16.655Z,17.00
2022-11-24T19:28:43.861Z,17.10
2022-11-24T19:31:13.010Z,17.10
2022-11-24T19:33:40.495Z,17.10
2022-11-24T19:36:13.352Z,17.10
2022-11-24T19:38:41.112Z,17.10
2022-11-24T19:41:13.288Z,17.20
2022-11-24T19:43:41.337Z,17.30
2022-11-24T19:46:10.628Z,17.30
2022-11-24T19:48:43.398Z,17.40
2022-11-24T19:51:19.005Z,17.40
2022-11-24T19:53:46.226Z,17.30
2022-11-24T19:56:16.461Z,17.30
2022-11-24T19:58:43.734Z,17.30
2022-11-24T20:01:11.975Z,17.20
2022-11-24T20:03:39.741Z,17.10
2022-11-24T20:06:08.194Z,17.00
2022-11-24T20:08:37.058Z,17.10
2022-11-24T20:11:09.276Z,17.20
2022-11-24T20:13:37.866Z,17.30
2022-11-24T20:16:05.800Z,17.10
2022-11-24T20:18:37.595Z,17.10
2022-11-24T20:21:18.741Z,17.10
2022-11-24T20:23:52.005Z,17.10
2022-11-24T20:26:20.869Z,17.20
2022-11-24T20:28:47.869Z,17.20
2022-11-24T20:31:20.322Z,17.30
2022-11-24T20:33:47.643Z,17.30
2022-11-24T20:36:17.692Z,17.30
2022-11-24T20:38:45.740Z,17.30
2022-11-24T20:41:18.818Z,17.30
2022-11-24T20:43:46.623Z,17.20
2022-11-24T20:46:21.741Z,17.20
2022-11-24T20:48:48.958Z,17.30
2022-11-24T20:51:23.016Z,17.40
2022-11-24T20:53:51.192Z,17.40
2022-11-24T20:56:24.671Z,17.30
2022-11-24T20:58:51.993Z,17.30
2022-11-24T21:01:31.347Z,17.30
2022-11-24T21:03:59.583Z,17.30
2022-11-24T21:06:28.121Z,17.30
2022-11-24T21:09:00.452Z,17.30
2022-11-24T21:11:30.783Z,17.30
2022-11-24T21:13:58.216Z,17.30
2022-11-24T21:16:26.542Z,17.30
2022-11-24T21:18:56.728Z,17.40
2022-11-24T21:21:25.316Z,17.40
2022-11-24T21:23:52.127Z,17.40
2022-11-24T21:26:19.509Z,17.40
2022-11-24T21:28:47.523Z,17.30
2022-11-24T21:31:17.437Z,17.40
2022-11-24T21:33:55.143Z,17.40
2022-11-24T21:36:24.395Z,17.30
2022-11-24T21:38:55.613Z,17.30
2022-11-24T21:41:23.673Z,17.30
2022-11-24T21:43:51.644Z,17.40
2022-11-24T21:46:18.676Z,17.50
2022-11-24T21:48:45.588Z,17.50
2022-11-24T21:51:17.881Z,17.40
2022-11-24T21:53:45.760Z,17.50
2022-11-24T21:56:16.081Z,17.30
2022-11-24T21:58:57.327Z,17.50
2022-11-24T22:01:27.404Z,17.40
2022-11-24T22:03:55.052Z,17.40
2022-11-24T22:06:22.267Z,17.40
2022-11-24T22:08:49.757Z,17.40
2022-11-24T22:11:24.776Z,17.40
2022-11-24T22:13:52.319Z,17.50
2022-11-24T22:16:21.480Z,17.40
2022-11-24T22:18:48.754Z,17.50
2022-11-24T22:21:18.217Z,17.50
2022-11-24T22:23:45.432Z,17.50
2022-11-24T22:26:17.634Z,17.50
2022-11-24T22:28:45.502Z,17.50
2022-11-24T22:31:15.947Z,17.60
2022-11-24T22:33:43.779Z,17.70
2022-11-24T22:36:12.345Z,17.60
2022-11-24T22:38:39.627Z,17.60
2022-11-24T22:41:12.237Z,17.50
2022-11-24T22:43:40.224Z,17.40
2022-11-24T22:46:11.369Z,17.30
2022-11-24T22:48:39.230Z,17.40
2022-11-24T22:51:11.395Z,17.60
2022-11-24T22:53:38.647Z,17.70
2022-11-24T22:56:11.071Z,17.70
2022-11-24T22:58:39.490Z,17.50
2022-11-24T23:01:14.633Z,17.60
2022-11-24T23:03:41.957Z,17.60
2022-11-24T23:06:13.227Z,17.50
2022-11-24T23:08:40.786Z,17.60
2022-11-24T23:11:14.632Z,17.50
2022-11-24T23:13:41.888Z,17.50
2022-11-24T23:16:15.057Z,17.40
2022-11-24T23:18:42.532Z,17.40
2022-11-24T23:21:11.809Z,17.50
2022-11-24T23:23:39.055Z,17.60
2022-11-24T23:26:11.341Z,17.60
2022-11-24T23:28:39.021Z,17.70
2022-11-24T23:31:12.060Z,17.70
2022-11-24T23:33:39.281Z,17.70
2022-11-24T23:36:09.203Z,17.70
2022-11-24T23:38:36.668Z,17.70
2022-11-24T23:41:10.766Z,17.90
2022-11-24T23:43:39.638Z,17.90
2022-11-24T23:46:09.023Z,17.90
2022-11-24T23:48:37.027Z,18.00
2022-11-24T23:51:10.324Z,18.00
2022-11-24T23:53:37.479Z,18.00
2022-11-24T23:56:04.703Z,18.00
2022-11-24T23:58:32.503Z,18.00
